Time;durP1;ratioP1;P1;durP2;ratioP2;P2;SDS_P1;SDS_P2;PMS_P1;PMS_P2;Temp;Humidity;BMP_temperature;BMP_pressure;BME280_temperature;BME280_humidity;BME280_pressure;Samples;Min_cycle;Max_cycle;Signal;HPM_P1;HPM_P2
2022/01/21 00:00:39;;;;;;;22.13;12.10;;;;;;;5.97;100.00;102170.22;4957115;28;20814;-89
2022/01/21 00:03:07;;;;;;;16.60;11.57;;;;;;;5.94;100.00;102177.78;4937114;28;20445;-88
2022/01/21 00:05:37;;;;;;;20.47;11.00;;;;;;;5.80;100.00;102171.59;4926647;29;20491;-88
2022/01/21 00:08:11;;;;;;;17.67;11.67;;;;;;;5.77;100.00;102181.84;4953316;28;20463;-88
2022/01/21 00:10:40;;;;;;;15.70;8.73;;;;;;;5.60;100.00;102174.22;4955611;28;20446;-88
2022/01/21 00:13:18;;;;;;;15.63;9.40;;;;;;;5.50;100.00;102164.16;4938958;29;20446;-88
2022/01/21 00:15:48;;;;;;;13.30;8.57;;;;;;;5.48;100.00;102171.56;4965574;28;20948;-88
2022/01/21 00:18:21;;;;;;;22.97;9.70;;;;;;;5.46;100.00;102180.78;4958762;28;20470;-87
2022/01/21 00:32:07;;;;;;;13.60;7.03;;;;;;;5.30;100.00;102162.22;4915701;28;20853;-88
2022/01/21 00:34:39;;;;;;;12.57;7.20;;;;;;;5.30;100.00;102162.22;4958112;28;20514;-87
2022/01/21 00:37:07;;;;;;;9.93;5.90;;;;;;;5.29;100.00;102160.47;4965214;28;20530;-88
2022/01/21 00:39:35;;;;;;;14.37;6.93;;;;;;;5.21;100.00;102146.69;4923444;29;20443;-88
2022/01/21 00:42:16;;;;;;;13.40;7.03;;;;;;;5.32;100.00;102154.81;4926952;28;20461;-87
2022/01/21 00:44:44;;;;;;;15.10;8.40;;;;;;;5.36;100.00;102148.16;4940665;29;20443;-88
2022/01/21 00:47:13;;;;;;;43.10;24.10;;;;;;;5.36;100.00;102142.75;4923037;29;20474;-88
2022/01/21 00:49:41;;;;;;;24.70;12.43;;;;;;;5.49;100.00;102150.72;4944587;28;20464;-87
2022/01/21 00:52:08;;;;;;;11.40;6.10;;;;;;;5.45;100.00;102144.69;4921844;29;20482;-87
2022/01/21 00:54:40;;;;;;;9.70;5.77;;;;;;;5.42;100.00;102144.94;4966348;28;20467;-87
2022/01/21 00:57:08;;;;;;;7.70;4.73;;;;;;;5.39;100.00;102134.34;4934966;29;20451;-87
2022/01/21 00:59:45;;;;;;;10.03;5.10;;;;;;;5.34;100.00;102141.16;4936193;28;20479;-88
2022/01/21 01:02:13;;;;;;;9.20;4.87;;;;;;;5.19;100.00;102137.84;4963427;28;20997;-89
2022/01/21 01:04:44;;;;;;;6.67;4.90;;;;;;;5.10;100.00;102138.56;4935166;29;20972;-89
2022/01/21 01:07:16;;;;;;;7.10;4.53;;;;;;;5.09;100.00;102134.13;4950016;28;20559;-87
2022/01/21 01:09:44;;;;;;;9.60;5.00;;;;;;;5.07;100.00;102127.97;4959384;28;20446;-88
2022/01/21 01:12:26;;;;;;;7.87;5.37;;;;;;;5.17;100.00;102128.97;4954861;28;20940;-87
2022/01/21 01:20:27;;;;;;;7.50;4.97;;;;;;;5.13;100.00;102111.25;4966208;28;20528;-88
2022/01/21 01:23:20;;;;;;;9.77;5.83;;;;;;;5.20;100.00;102117.84;4946435;28;20963;-87
2022/01/21 01:28:35;;;;;;;8.77;4.60;;;;;;;5.25;100.00;102109.34;4966238;28;20495;-87
2022/01/21 01:31:05;;;;;;;11.40;6.60;;;;;;;5.28;100.00;102118.09;4965247;28;20445;-87
2022/01/21 01:33:39;;;;;;;11.00;5.73;;;;;;;5.19;100.00;102097.19;4962024;28;20496;-89
2022/01/21 01:36:08;;;;;;;25.27;12.10;;;;;;;5.25;100.00;102104.81;4962007;28;20517;-88
2022/01/21 01:39:00;;;;;;;12.37;7.90;;;;;;;5.24;100.00;102108.50;4952018;28;20808;-89
2022/01/21 01:41:55;;;;;;;17.97;8.03;;;;;;;5.22;100.00;102099.63;4949641;28;20453;-87
2022/01/21 01:49:56;;;;;;;8.63;4.40;;;;;;;5.10;100.00;102106.06;4964896;28;20461;-88
2022/01/21 01:52:24;;;;;;;10.10;4.90;;;;;;;5.05;100.00;102109.13;4932478;28;20450;-86
2022/01/21 01:54:53;;;;;;;10.60;5.27;;;;;;;5.04;100.00;102111.97;4933187;28;20454;-87
2022/01/21 01:57:21;;;;;;;32.87;18.13;;;;;;;4.99;100.00;102103.38;4948624;28;20865;-90
2022/01/21 02:00:08;;;;;;;69.90;30.50;;;;;;;5.05;100.00;102102.84;4948403;28;20449;-87
2022/01/21 02:02:36;;;;;;;31.73;17.00;;;;;;;5.01;100.00;102090.53;4957829;28;20453;-89
2022/01/21 02:05:10;;;;;;;19.00;9.00;;;;;;;4.99;100.00;102092.53;4962096;28;20430;-88
2022/01/21 02:07:38;;;;;;;10.50;5.67;;;;;;;4.99;100.00;102097.97;4926122;29;20984;-88
2022/01/21 02:10:08;;;;;;;7.57;4.60;;;;;;;4.99;100.00;102092.53;4951002;28;20529;-90
2022/01/21 02:12:38;;;;;;;7.50;5.30;;;;;;;4.97;100.00;102099.94;4935570;28;20445;-88
2022/01/21 02:15:06;;;;;;;7.57;4.40;;;;;;;4.91;100.00;102095.00;4965136;28;20437;-88
2022/01/21 02:22:56;;;;;;;6.50;4.20;;;;;;;4.79;100.00;102092.31;4984315;28;20449;-88
2022/01/21 02:25:26;;;;;;;9.50;5.00;;;;;;;4.81;100.00;102105.72;4965048;28;20449;-90
2022/01/21 02:31:35;;;;;;;11.53;5.80;;;;;;;4.74;100.00;102089.09;4988683;28;20492;-88
2022/01/21 02:34:04;;;;;;;8.17;5.00;;;;;;;4.75;99.96;102098.94;4939509;28;20449;-89
2022/01/21 02:36:32;;;;;;;7.90;3.43;;;;;;;4.72;99.83;102099.19;4968149;28;20455;-88
2022/01/21 02:39:03;;;;;;;5.90;3.40;;;;;;;4.60;99.85;102086.63;4964287;28;20452;-89
2022/01/21 02:41:33;;;;;;;6.60;4.00;;;;;;;4.66;99.80;102102.38;4951982;28;20441;-90
2022/01/21 02:44:04;;;;;;;7.73;3.33;;;;;;;4.59;100.00;102109.28;4947046;28;20446;-90
2022/01/21 02:46:36;;;;;;;8.37;5.20;;;;;;;4.61;99.84;102109.16;4963598;28;20673;-89
2022/01/21 02:49:14;;;;;;;13.50;5.50;;;;;;;4.57;100.00;102105.81;4948877;28;20841;-89
2022/01/21 02:51:45;;;;;;;7.70;4.00;;;;;;;4.57;100.00;102113.94;4957155;28;20802;-89
2022/01/21 02:54:14;;;;;;;9.07;4.20;;;;;;;4.56;99.92;102116.78;4979653;28;20974;-89
2022/01/21 02:56:50;;;;;;;5.83;3.40;;;;;;;4.46;99.46;102105.78;4943488;29;21036;-88
2022/01/21 02:59:20;;;;;;;6.53;3.63;;;;;;;4.44;99.81;102107.75;4941311;29;20451;-88
2022/01/21 03:01:54;;;;;;;6.50;3.67;;;;;;;4.44;100.00;102116.75;4941181;29;20458;-89
2022/01/21 03:04:44;;;;;;;7.30;4.00;;;;;;;4.43;100.00;102106.03;4975891;28;20525;-89
2022/01/21 03:07:14;;;;;;;8.77;4.10;;;;;;;4.50;100.00;102118.09;4948210;28;20820;-89
2022/01/21 03:09:45;;;;;;;8.00;4.50;;;;;;;4.36;100.00;102085.88;4945772;28;20492;-89
2022/01/21 03:12:21;;;;;;;5.77;4.13;;;;;;;4.47;100.00;102104.81;4963706;28;20457;-89
2022/01/21 03:14:52;;;;;;;8.30;3.57;;;;;;;4.39;100.00;102110.84;4947769;28;20456;-89
2022/01/21 03:17:20;;;;;;;5.90;3.43;;;;;;;4.32;100.00;102098.78;4963646;28;20465;-90
2022/01/21 03:19:56;;;;;;;12.07;3.77;;;;;;;4.35;100.00;102108.50;4941444;28;20451;-89
2022/01/21 03:22:24;;;;;;;6.03;3.13;;;;;;;4.38;100.00;102109.13;4946820;28;21018;-89
2022/01/21 03:24:55;;;;;;;6.30;4.07;;;;;;;4.42;100.00;102121.44;4963672;28;20927;-90
2022/01/21 03:27:26;;;;;;;12.57;6.60;;;;;;;4.44;100.00;102118.59;4944963;28;20493;-90
2022/01/21 03:29:55;;;;;;;11.40;7.07;;;;;;;4.35;100.00;102108.50;4962690;28;20445;-89
2022/01/21 03:32:26;;;;;;;7.13;4.53;;;;;;;4.39;100.00;102104.56;4924756;29;20443;-88
2022/01/21 03:34:54;;;;;;;9.00;5.10;;;;;;;4.33;99.94;102097.78;4959432;28;20452;-89
2022/01/21 03:37:27;;;;;;;9.63;4.73;;;;;;;4.29;98.96;102092.72;4929414;28;20512;-90
2022/01/21 03:39:56;;;;;;;8.17;4.53;;;;;;;4.23;99.19;102093.22;4931880;28;20441;-89
2022/01/21 03:42:25;;;;;;;7.10;4.60;;;;;;;4.21;99.28;102101.47;4962845;28;20452;-89
2022/01/21 03:45:00;;;;;;;7.20;4.57;;;;;;;4.19;99.72;102102.56;4960424;28;20445;-88
2022/01/21 03:47:28;;;;;;;7.17;4.20;;;;;;;4.19;99.51;102103.44;4995405;28;20609;-89
2022/01/21 03:50:19;;;;;;;5.57;2.90;;;;;;;4.16;99.75;102109.94;4946563;28;20534;-89
2022/01/21 03:52:53;;;;;;;8.13;3.90;;;;;;;4.15;100.00;102096.53;4964232;28;20433;-89
2022/01/21 03:55:22;;;;;;;7.43;4.60;;;;;;;4.14;99.96;102109.19;4971191;28;20438;-89
2022/01/21 03:57:50;;;;;;;6.63;4.10;;;;;;;4.12;99.93;102091.34;4947066;28;20441;-89
2022/01/21 04:00:21;;;;;;;4.60;3.00;;;;;;;4.09;99.70;102092.44;4933907;29;20648;-89
2022/01/21 04:03:09;;;;;;;10.23;3.10;;;;;;;4.14;100.00;102094.78;4939787;29;20462;-89
2022/01/21 04:05:38;;;;;;;4.50;3.13;;;;;;;4.11;100.00;102085.06;4978632;28;20450;-89
2022/01/21 04:08:07;;;;;;;6.87;3.63;;;;;;;4.03;100.00;102068.59;4958026;28;20490;-88
2022/01/21 04:10:38;;;;;;;15.23;7.97;;;;;;;4.10;99.81;102082.47;4952696;28;20480;-89
2022/01/21 04:13:23;;;;;;;11.53;6.57;;;;;;;4.08;99.02;102092.56;4947417;28;20791;-89
2022/01/21 04:15:53;;;;;;;9.67;5.70;;;;;;;4.00;98.84;102081.47;4960971;28;20437;-89
2022/01/21 04:18:30;;;;;;;9.40;4.83;;;;;;;4.00;99.11;102082.34;4946525;28;20453;-89
2022/01/21 04:21:05;;;;;;;6.43;3.80;;;;;;;3.91;99.19;102072.22;4958667;28;20969;-89
2022/01/21 04:23:35;;;;;;;6.90;3.37;;;;;;;3.87;99.02;102073.44;4947111;28;20421;-89
2022/01/21 04:26:05;;;;;;;5.63;3.57;;;;;;;3.91;99.76;102085.75;4945913;28;20453;-89
2022/01/21 04:28:34;;;;;;;7.03;3.40;;;;;;;3.89;99.94;102081.44;4975986;28;20931;-89
2022/01/21 04:31:05;;;;;;;8.23;4.57;;;;;;;3.90;99.82;102081.31;4927999;29;20462;-88
2022/01/21 04:33:35;;;;;;;6.90;4.10;;;;;;;3.87;99.69;102077.97;4923806;29;20458;-88
2022/01/21 04:36:05;;;;;;;6.40;4.50;;;;;;;3.85;99.27;102072.69;4932710;29;20526;-89
2022/01/21 04:38:39;;;;;;;8.30;5.10;;;;;;;3.80;99.16;102069.50;4939083;29;20459;-89
2022/01/21 04:49:28;;;;;;;7.70;3.60;;;;;;;3.84;99.41;102087.22;4947344;28;20443;-88
2022/01/21 04:52:02;;;;;;;8.80;5.17;;;;;;;3.82;99.35;102083.75;4929157;28;20800;-88
2022/01/21 04:54:32;;;;;;;8.83;4.37;;;;;;;3.80;98.48;102091.13;4944493;28;20520;-89
2022/01/21 04:57:02;;;;;;;6.73;4.27;;;;;;;3.73;98.20;102084.44;4937777;28;20456;-89
2022/01/21 04:59:37;;;;;;;4.47;3.10;;;;;;;3.67;98.92;102074.09;4927332;28;20937;-89
2022/01/21 05:02:08;;;;;;;6.30;2.97;;;;;;;3.66;99.02;102086.75;4927232;28;20521;-89
2022/01/21 05:04:36;;;;;;;3.00;2.70;;;;;;;3.64;98.94;102082.47;4943430;28;20460;-89
2022/01/21 05:07:07;;;;;;;4.60;2.97;;;;;;;3.63;99.83;102086.13;4944087;28;20489;-89
2022/01/21 05:09:38;;;;;;;8.00;3.80;;;;;;;3.60;100.00;102072.84;4924064;28;20474;-89
2022/01/21 05:12:08;;;;;;;5.70;3.20;;;;;;;3.61;100.00;102075.44;4973419;28;20496;-89
2022/01/21 05:17:26;;;;;;;5.50;3.63;;;;;;;3.63;99.35;102078.03;4956669;28;20813;-89
2022/01/21 05:19:59;;;;;;;5.43;3.37;;;;;;;3.60;98.93;102078.25;4924871;28;20446;-90
2022/01/21 05:22:29;;;;;;;9.20;4.17;;;;;;;3.56;98.77;102076.75;4966588;28;20446;-89
2022/01/21 05:25:00;;;;;;;9.20;4.50;;;;;;;3.48;98.77;102070.09;4941849;28;20983;-89
2022/01/21 05:27:29;;;;;;;12.03;5.07;;;;;;;3.50;98.85;102071.81;4972070;28;20470;-89
2022/01/21 05:29:58;;;;;;;11.87;5.07;;;;;;;3.50;98.20;102071.81;4974331;28;20525;-89
2022/01/21 05:32:29;;;;;;;10.40;5.27;;;;;;;3.47;98.60;102076.47;4926939;29;20509;-89
2022/01/21 05:34:57;;;;;;;9.10;4.60;;;;;;;3.43;98.43;102071.44;4977245;28;20449;-89
2022/01/21 05:37:26;;;;;;;6.93;4.23;;;;;;;3.39;98.27;102070.78;4958531;28;20443;-90
2022/01/21 05:40:01;;;;;;;10.47;4.77;;;;;;;3.33;98.45;102065.84;4942471;28;20446;-89
2022/01/21 05:42:30;;;;;;;6.63;3.70;;;;;;;3.32;98.50;102064.09;4942070;28;20442;-89
2022/01/21 05:47:37;;;;;;;6.30;3.80;;;;;;;3.33;98.82;102065.84;4957256;29;20474;-89
2022/01/21 05:50:05;;;;;;;8.93;4.90;;;;;;;3.30;98.80;102055.25;4955033;28;20820;-89
2022/01/21 05:52:41;;;;;;;7.77;4.20;;;;;;;3.38;98.58;102074.47;4945461;29;20456;-89
2022/01/21 05:55:16;;;;;;;6.53;4.10;;;;;;;3.35;98.43;102072.00;4953756;29;20799;-89
2022/01/21 05:57:44;;;;;;;6.10;3.67;;;;;;;3.33;98.77;102062.25;4959048;29;20445;-88
2022/01/21 06:00:12;;;;;;;5.83;3.43;;;;;;;3.32;98.61;102069.50;4965056;28;20438;-89
2022/01/21 06:02:56;;;;;;;6.53;3.40;;;;;;;3.32;98.32;102080.31;4942820;28;20448;-89
2022/01/21 06:05:24;;;;;;;6.83;4.10;;;;;;;3.24;98.61;102071.94;4977434;28;20501;-89
2022/01/21 06:07:54;;;;;;;8.40;3.37;;;;;;;3.30;98.50;102084.09;4945595;28;20489;-88
2022/01/21 06:10:22;;;;;;;5.40;3.70;;;;;;;3.31;98.36;102081.28;4979893;28;21002;-89
2022/01/21 06:12:51;;;;;;;8.60;3.90;;;;;;;3.24;98.13;102076.47;4940494;29;20451;-89
2022/01/21 06:15:24;;;;;;;7.00;3.80;;;;;;;3.25;98.41;102079.06;4946829;28;20817;-89
2022/01/21 06:17:52;;;;;;;8.37;4.07;;;;;;;3.21;98.35;102087.50;4949053;28;20484;-89
2022/01/21 06:20:20;;;;;;;8.20;3.50;;;;;;;3.13;97.98;102080.81;4942553;28;20461;-88
2022/01/21 06:22:51;;;;;;;9.33;4.60;;;;;;;3.20;98.67;102094.75;4996427;28;20504;-88
2022/01/21 06:25:19;;;;;;;7.40;4.10;;;;;;;3.12;98.60;102089.91;4964246;28;20939;-88
2022/01/21 06:27:48;;;;;;;5.80;3.50;;;;;;;3.17;98.54;102105.78;4943742;28;20474;-88
2022/01/21 06:30:16;;;;;;;7.37;3.50;;;;;;;3.12;98.30;102089.91;4951420;28;20444;-89
2022/01/21 06:32:53;;;;;;;6.77;3.07;;;;;;;3.09;98.48;102091.94;4948871;28;20496;-89
2022/01/21 06:35:23;;;;;;;4.30;2.97;;;;;;;3.10;98.69;102102.63;4964655;28;20456;-89
2022/01/21 06:37:51;;;;;;;6.40;3.20;;;;;;;3.03;98.22;102096.00;4952323;28;20960;-89
2022/01/21 06:40:23;;;;;;;10.90;3.90;;;;;;;2.96;97.54;102112.72;4953785;28;20445;-89
2022/01/21 06:43:01;;;;;;;7.70;3.23;;;;;;;2.82;98.34;102102.94;4981061;28;20460;-89
2022/01/21 06:45:30;;;;;;;7.27;3.40;;;;;;;2.84;99.25;102108.22;4932764;28;20540;-89
2022/01/21 06:48:26;;;;;;;8.03;3.03;;;;;;;2.81;99.20;102103.91;4946682;28;21093;-90
2022/01/21 06:51:13;;;;;;;9.30;3.03;;;;;;;2.76;99.01;102103.38;4961865;28;21003;-89
2022/01/21 06:54:05;;;;;;;10.73;2.93;;;;;;;2.75;99.80;102110.59;4982324;28;20434;-88
2022/01/21 06:56:59;;;;;;;8.07;2.50;;;;;;;2.77;100.00;102110.50;4962049;28;20472;-89
2022/01/21 06:59:27;;;;;;;6.77;3.40;;;;;;;2.71;99.89;102111.78;4907882;29;20506;-89
2022/01/21 07:01:56;;;;;;;3.47;2.70;;;;;;;2.74;100.00;102108.88;4906572;29;20442;-88
2022/01/21 07:04:35;;;;;;;5.90;4.00;;;;;;;2.77;100.00;102116.75;4911567;29;20446;-90
2022/01/21 07:07:15;;;;;;;6.10;3.30;;;;;;;2.83;100.00;102117.31;4889901;29;20521;-89
2022/01/21 07:10:11;;;;;;;11.67;6.17;;;;;;;2.89;100.00;102114.13;4886228;29;20470;-89
2022/01/21 07:12:51;;;;;;;6.27;3.23;;;;;;;2.91;100.00;102121.16;4883491;29;20443;-88
2022/01/21 07:15:20;;;;;;;6.23;3.00;;;;;;;2.88;99.81;102117.84;4897029;29;20505;-88
2022/01/21 07:17:55;;;;;;;6.03;3.23;;;;;;;2.93;99.82;102118.34;4870853;29;20449;-90
2022/01/21 07:20:24;;;;;;;4.40;3.00;;;;;;;2.88;99.70;102107.91;4883692;29;20469;-89
2022/01/21 07:22:51;;;;;;;6.57;3.90;;;;;;;2.97;99.47;102123.44;4882895;29;20910;-89
2022/01/21 07:25:31;;;;;;;5.93;3.30;;;;;;;2.95;99.03;102124.50;4883823;29;20458;-90
2022/01/21 07:28:05;;;;;;;12.33;4.67;;;;;;;2.87;98.97;102106.19;4879309;29;20478;-89
2022/01/21 07:30:39;;;;;;;7.90;4.40;;;;;;;2.90;98.96;102116.72;4868402;29;20540;-90
2022/01/21 07:33:16;;;;;;;8.27;5.37;;;;;;;2.83;98.24;102118.16;4864266;29;20454;-89
2022/01/21 07:35:43;;;;;;;11.07;3.20;;;;;;;2.76;98.54;102114.16;4875432;29;20436;-89
2022/01/21 07:38:15;;;;;;;6.47;3.40;;;;;;;2.76;99.31;102122.25;4924396;28;20947;-89
2022/01/21 07:40:44;;;;;;;6.60;3.30;;;;;;;2.72;99.54;102118.06;4975496;28;20446;-89
2022/01/21 07:43:24;;;;;;;9.13;4.13;;;;;;;2.72;99.75;102112.66;4935438;29;20892;-89
2022/01/21 07:45:55;;;;;;;9.03;4.90;;;;;;;2.82;99.61;102129.06;4940423;29;20845;-89
2022/01/21 07:48:29;;;;;;;9.90;5.43;;;;;;;2.80;99.25;102131.00;4939892;28;20594;-89
2022/01/21 07:51:00;;;;;;;38.67;6.93;;;;;;;2.82;99.11;102129.06;4939928;29;20451;-89
2022/01/21 07:53:32;;;;;;;259.73;19.70;;;;;;;2.81;99.48;102132.75;4939664;29;21037;-90
2022/01/21 07:56:24;;;;;;;72.73;10.80;;;;;;;2.82;99.40;102129.06;4864130;29;20458;-89
2022/01/21 07:59:09;;;;;;;81.63;10.60;;;;;;;2.81;99.46;102127.34;4863963;29;20450;-89
2022/01/21 08:01:44;;;;;;;82.70;10.40;;;;;;;2.74;99.76;102125.06;4863512;29;20454;-88
2022/01/21 08:04:14;;;;;;;33.03;8.17;;;;;;;2.81;100.00;102132.75;4863540;29;20447;-90
2022/01/21 08:06:51;;;;;;;14.13;5.20;;;;;;;2.86;99.96;102141.38;4835087;29;20551;-89
2022/01/21 08:09:23;;;;;;;8.50;3.93;;;;;;;2.77;99.54;102132.09;4853145;29;20559;-88
2022/01/21 08:11:53;;;;;;;8.70;3.50;;;;;;;2.71;99.02;102133.38;4859923;29;20452;-88
2022/01/21 08:14:21;;;;;;;5.90;4.20;;;;;;;2.77;100.00;102149.16;4894386;29;20807;-88
2022/01/21 08:16:51;;;;;;;11.60;4.03;;;;;;;2.83;100.00;102147.00;4983889;28;20463;-89
2022/01/21 08:19:19;;;;;;;8.93;3.30;;;;;;;2.86;100.00;102135.97;4946207;29;20456;-88
2022/01/21 08:22:00;;;;;;;8.37;4.00;;;;;;;2.93;99.84;102137.25;4967641;28;20499;-88
2022/01/21 08:24:28;;;;;;;12.13;5.20;;;;;;;2.91;99.79;102137.34;4957521;28;20449;-89
2022/01/21 08:26:57;;;;;;;16.40;5.10;;;;;;;2.88;100.00;102131.34;4936378;29;20445;-88
2022/01/21 08:29:24;;;;;;;13.53;4.77;;;;;;;3.07;100.00;102146.09;4946995;28;20571;-88
2022/01/21 08:32:04;;;;;;;19.90;5.37;;;;;;;3.19;99.87;102160.53;4933261;29;20946;-89
2022/01/21 08:34:35;;;;;;;16.83;4.10;;;;;;;3.25;99.74;102152.00;4936238;29;20447;-89
2022/01/21 08:37:03;;;;;;;7.13;3.67;;;;;;;3.30;100.00;102151.66;4940231;29;21025;-89
2022/01/21 08:39:33;;;;;;;12.63;3.70;;;;;;;3.34;100.00;102151.31;4951898;29;20539;-90
2022/01/21 08:42:16;;;;;;;10.10;4.13;;;;;;;3.44;100.00;102141.56;4904724;29;20503;-89
2022/01/21 08:44:43;;;;;;;10.50;4.53;;;;;;;3.54;100.00;102154.38;4922374;29;20444;-89
2022/01/21 08:47:12;;;;;;;9.70;4.43;;;;;;;3.62;100.00;102152.84;4934730;29;20449;-89
2022/01/21 08:49:44;;;;;;;6.40;4.00;;;;;;;3.80;100.00;102165.00;4935566;29;20491;-89
2022/01/21 08:52:23;;;;;;;12.13;5.57;;;;;;;3.92;100.00;102165.91;4951446;29;20474;-89
2022/01/21 08:54:53;;;;;;;15.60;6.93;;;;;;;3.91;100.00;102145.25;4940587;29;20501;-89
2022/01/21 08:57:21;;;;;;;16.83;7.17;;;;;;;4.08;100.00;102160.19;4929987;29;20444;-89
2022/01/21 08:59:59;;;;;;;19.10;7.70;;;;;;;4.15;100.00;102159.59;4967052;28;20440;-89
2022/01/21 09:02:29;;;;;;;21.40;8.87;;;;;;;4.25;100.00;102164.28;4941569;29;20447;-88
2022/01/21 09:05:00;;;;;;;17.47;7.40;;;;;;;4.34;100.00;102166.31;4955654;28;20448;-89
2022/01/21 09:07:27;;;;;;;17.03;7.30;;;;;;;4.43;100.00;102168.28;4939136;29;20518;-88
2022/01/21 09:09:55;;;;;;;28.07;10.83;;;;;;;4.55;100.00;102164.66;4969868;28;20558;-89
2022/01/21 09:12:30;;;;;;;37.87;14.83;;;;;;;4.72;100.00;102176.84;4953153;29;20482;-88
2022/01/21 09:15:38;;;;;;;29.33;14.77;;;;;;;4.87;100.00;102170.22;4951664;29;20453;-91
2022/01/21 09:18:09;;;;;;;24.27;11.00;;;;;;;5.04;100.00;102171.56;4954190;28;20457;-96
2022/01/21 09:20:40;;;;;;;24.27;8.77;;;;;;;5.15;100.00;102174.31;4952553;29;20861;-95
2022/01/21 09:23:15;;;;;;;46.60;11.20;;;;;;;5.22;100.00;102156.53;4956386;29;20464;-96
2022/01/21 09:25:44;;;;;;;36.53;13.87;;;;;;;5.42;100.00;102163.03;4956190;29;20447;-88
2022/01/21 09:28:49;;;;;;;50.53;17.53;;;;;;;5.64;100.00;102173.00;4939175;29;20487;-90
2022/01/21 09:31:17;;;;;;;40.33;16.80;;;;;;;5.83;100.00;102167.75;4975834;28;20455;-94
2022/01/21 09:34:01;;;;;;;50.53;19.47;;;;;;;5.97;100.00;102158.50;4957690;28;20938;-95
2022/01/21 09:36:36;;;;;;;37.07;13.70;;;;;;;6.23;100.00;102166.16;4957074;28;20450;-92
2022/01/21 09:39:17;;;;;;;46.20;8.90;;;;;;;6.47;100.00;102167.75;4942351;29;20454;-90
2022/01/21 09:41:50;;;;;;;27.57;8.13;;;;;;;6.73;100.00;102166.38;4957798;28;20455;-92
2022/01/21 09:44:53;;;;;;;20.17;8.13;;;;;;;6.96;100.00;102187.94;4973626;28;20933;-93
2022/01/21 09:47:21;;;;;;;19.37;9.30;;;;;;;7.06;100.00;102162.53;4974288;28;20478;-89
2022/01/21 09:49:48;;;;;;;20.90;8.60;;;;;;;7.27;100.00;102162.47;4958200;28;20455;-89
2022/01/21 09:52:26;;;;;;;26.17;10.50;;;;;;;7.61;100.00;102180.19;4904371;29;20455;-88
2022/01/21 09:54:54;;;;;;;26.93;9.87;;;;;;;7.80;100.00;102167.63;4982551;28;20457;-89
2022/01/21 09:57:24;;;;;;;28.83;8.23;;;;;;;8.03;100.00;102179.13;4941432;29;20479;-90
2022/01/21 09:59:58;;;;;;;18.50;7.70;;;;;;;8.24;100.00;102166.22;4941143;29;20462;-89
2022/01/21 10:02:29;;;;;;;16.20;7.93;;;;;;;8.50;100.00;102172.81;4926091;29;20438;-90
2022/01/21 10:05:00;;;;;;;37.73;7.90;;;;;;;8.76;100.00;102167.63;4925598;29;20463;-89
2022/01/21 10:07:28;;;;;;;9.67;5.40;;;;;;;9.15;100.00;102172.94;4956800;28;20830;-89
2022/01/21 10:10:00;;;;;;;10.43;5.00;;;;;;;9.41;100.00;102162.22;4941979;28;20473;-90
2022/01/21 10:12:29;;;;;;;9.00;4.47;;;;;;;9.78;100.00;102170.34;4958513;28;20451;-89
2022/01/21 10:15:07;;;;;;;8.93;4.33;;;;;;;10.01;99.97;102161.53;4921786;29;20451;-90
2022/01/21 10:18:08;;;;;;;9.13;5.00;;;;;;;10.23;97.71;102160.22;4926928;29;20444;-88
2022/01/21 10:20:57;;;;;;;12.80;5.03;;;;;;;10.44;96.71;102164.50;4933391;28;20889;-88
2022/01/21 10:23:25;;;;;;;10.07;5.00;;;;;;;10.57;93.17;102167.72;4970951;28;20988;-89
2022/01/21 10:26:05;;;;;;;9.10;4.50;;;;;;;10.77;91.04;102174.69;4934203;29;20462;-89
2022/01/21 10:28:33;;;;;;;9.77;4.00;;;;;;;10.93;89.67;102171.22;4926460;29;20475;-89
2022/01/21 10:31:25;;;;;;;7.93;4.23;;;;;;;11.11;89.29;102168.41;4944881;29;20914;-89
2022/01/21 10:34:03;;;;;;;7.70;4.67;;;;;;;11.20;87.45;102160.06;4953525;29;20450;-89
2022/01/21 10:36:35;;;;;;;8.77;4.43;;;;;;;11.45;87.20;102177.47;4925177;29;20455;-90
2022/01/21 10:39:31;;;;;;;9.37;4.80;;;;;;;11.57;86.38;102170.66;4977747;28;20443;-88
2022/01/21 10:41:58;;;;;;;12.50;5.00;;;;;;;11.72;85.96;102174.50;4965937;28;20447;-89
2022/01/21 10:44:28;;;;;;;8.83;5.77;;;;;;;11.82;85.25;102162.56;4942145;29;20464;-87
2022/01/21 10:47:07;;;;;;;12.93;6.00;;;;;;;12.00;84.67;102174.25;4939147;29;20446;-89
2022/01/21 10:49:36;;;;;;;9.93;5.10;;;;;;;12.12;84.80;102172.06;4948411;29;20480;-88
2022/01/21 10:52:04;;;;;;;11.50;5.50;;;;;;;12.22;84.13;102170.88;4957515;28;20443;-87
2022/01/21 10:54:32;;;;;;;8.33;4.13;;;;;;;12.29;82.76;102163.69;4956544;28;20494;-87
2022/01/21 10:57:16;;;;;;;7.73;5.00;;;;;;;12.52;82.63;102176.69;4945386;29;20950;-88
2022/01/21 11:00:00;;;;;;;12.73;5.30;;;;;;;12.65;82.84;102163.34;4937127;29;20506;-87
2022/01/21 11:02:41;;;;;;;10.80;5.33;;;;;;;12.81;82.79;102174.28;4929850;29;20524;-88
2022/01/21 11:05:16;;;;;;;10.20;6.17;;;;;;;12.87;82.64;102168.13;4949263;28;20510;-88
2022/01/21 11:07:55;;;;;;;12.50;5.47;;;;;;;12.97;81.84;102157.78;4951471;29;20892;-88
2022/01/21 11:10:32;;;;;;;11.50;6.17;;;;;;;13.13;81.72;102163.25;4926650;28;20485;-88
2022/01/21 11:13:03;;;;;;;16.70;6.30;;;;;;;13.19;81.17;102156.22;4976112;28;20484;-88
2022/01/21 11:15:41;;;;;;;11.33;6.97;;;;;;;13.26;80.69;102159.13;4957429;28;20955;-89
2022/01/21 11:18:14;;;;;;;12.67;6.70;;;;;;;13.34;80.51;102164.59;4936925;29;20456;-89
2022/01/21 11:20:42;;;;;;;13.33;6.93;;;;;;;13.39;80.52;102151.19;4937110;29;20468;-89
2022/01/21 11:23:10;;;;;;;20.63;7.40;;;;;;;13.45;80.18;102142.25;4970484;28;20468;-89
2022/01/21 11:25:42;;;;;;;18.67;7.97;;;;;;;13.55;79.63;102145.63;4930420;28;20807;-89
2022/01/21 11:28:11;;;;;;;17.57;7.93;;;;;;;13.67;79.47;102146.06;4957709;28;20485;-88
2022/01/21 11:30:39;;;;;;;17.00;7.60;;;;;;;13.77;78.68;102133.81;4950433;29;20452;-89
2022/01/21 11:33:10;;;;;;;15.93;8.43;;;;;;;13.90;78.26;102132.38;4920378;29;20534;-90
2022/01/21 11:35:39;;;;;;;15.90;8.77;;;;;;;13.95;77.80;102132.69;4947685;28;20451;-88
2022/01/21 11:38:11;;;;;;;23.57;8.70;;;;;;;14.00;76.38;102128.34;4937769;29;20464;-88
2022/01/21 11:40:40;;;;;;;26.30;9.60;;;;;;;14.07;75.86;102122.97;4940735;28;20435;-88
2022/01/21 11:43:08;;;;;;;18.60;9.60;;;;;;;14.21;75.61;102130.44;4938473;28;20450;-89
2022/01/21 11:51:26;;;;;;;19.90;9.30;;;;;;;14.54;73.17;102125.53;4941285;29;20454;-87
2022/01/21 11:54:15;;;;;;;30.70;10.60;;;;;;;14.57;74.89;102108.66;4948177;29;20455;-89
2022/01/21 11:56:48;;;;;;;31.07;12.53;;;;;;;14.73;75.64;102124.16;4969802;28;20447;-89
2022/01/21 12:01:52;;;;;;;16.83;9.00;;;;;;;14.84;77.26;102099.75;4939844;29;20511;-89
2022/01/21 12:04:44;;;;;;;15.07;8.17;;;;;;;14.98;77.78;102100.84;4954633;28;20555;-89
2022/01/21 12:07:33;;;;;;;20.00;7.93;;;;;;;15.04;77.80;102100.06;4953669;29;20451;-89
2022/01/21 12:10:07;;;;;;;15.10;7.00;;;;;;;15.11;77.48;102086.38;4970666;28;20498;-89
2022/01/21 12:12:57;;;;;;;16.47;8.40;;;;;;;15.18;77.44;102090.09;4963059;28;20463;-91
2022/01/21 12:21:05;;;;;;;14.00;7.03;;;;;;;15.36;76.87;102086.94;4964172;28;20466;-90
2022/01/21 12:23:45;;;;;;;14.17;7.50;;;;;;;15.44;76.65;102067.53;4937476;29;20460;-89
2022/01/21 12:26:26;;;;;;;13.47;7.87;;;;;;;15.44;75.93;102057.38;4955375;29;20949;-90
2022/01/21 12:28:59;;;;;;;11.87;6.47;;;;;;;15.60;75.78;102067.31;4936574;29;20472;-89
2022/01/21 12:31:40;;;;;;;12.97;7.97;;;;;;;15.67;75.09;102061.91;4954607;28;20459;-89
2022/01/21 12:34:12;;;;;;;17.27;7.70;;;;;;;15.71;73.95;102044.78;4972850;28;20514;-89
2022/01/21 12:36:57;;;;;;;12.93;7.43;;;;;;;15.83;73.84;102050.63;4960648;28;20463;-90
2022/01/21 12:39:42;;;;;;;15.50;8.60;;;;;;;15.93;74.19;102053.06;4951635;29;20458;-88
2022/01/21 12:42:23;;;;;;;15.27;8.40;;;;;;;16.00;73.74;102041.03;4936218;29;20439;-88
2022/01/21 12:44:58;;;;;;;11.13;7.33;;;;;;;16.01;73.53;102028.09;4945968;29;20442;-87
2022/01/21 12:47:32;;;;;;;15.27;7.83;;;;;;;16.08;72.89;102032.63;4974688;28;20571;-87
2022/01/21 12:50:14;;;;;;;14.80;7.87;;;;;;;16.19;72.52;102036.75;4962238;28;20529;-88
2022/01/21 12:53:44;;;;;;;12.60;6.13;;;;;;;16.22;72.29;102028.06;4916898;29;20531;-87
2022/01/21 12:58:31;;;;;;;15.20;7.97;;;;;;;16.34;71.37;102018.22;4941509;29;20452;-87